• Join FlightAware (Why Join?)
  • Login
  • US Flag 
 
03:10AM EST


 

Airport Tracker/Info


-or-


 

Live Flight TrackerFlight Track Log ✈ SWA8500 ✈ 29-Apr-2013 ✈ KBWI - KPVD

Flight Track Log - Related Links

Times and Time Zones

All times are in EDT time to prevent confusion due to time zone crossing. See the SWA8500 flight status page for this flight to view local times or setup timezone preferences in your user account.

Time Position Orientation Groundspeed Altitude Reporting Facility
EDT Latitude Longitude Course Direction KTS MPH feet Rate Location/Type
05:24AM 39.1500 -76.6500 95° East 143 165 2,700  Level Potomac TRACON
05:26AM 39.1394 -76.4800 95° East 253 291 11,200 3,660 Climbing Washington Center
05:27AM 39.1444 -76.3517 87° East 306 352 14,700 3,480 Climbing Washington Center
05:28AM 39.1494 -76.2097 87° East 362 417 18,200 3,720 Climbing Washington Center
05:29AM 39.1939 -76.0656 68° East 416 479 22,300 3,720 Climbing Washington Center
05:30AM 39.2733 -75.9428 50° Northeast 418 481 25,800 2,700 Climbing Washington Center
05:31AM 39.3592 -75.8144 49° Northeast 442 509 27,600 1,980 Climbing Washington Center
05:32AM 39.4511 -75.6722 50° Northeast 481 554 29,900 1,860 Climbing Washington Center
05:34AM 39.6200 -75.4092 50° Northeast 523 602 33,000 1,080 Climbing New York Center
05:35AM 39.7150 -75.2669 49° Northeast 523 602 33,000  Level New York Center
05:36AM 39.8061 -75.1189 51° Northeast 523 602 33,000  Level New York Center
05:37AM 39.8989 -74.9758 50° Northeast 528 608 33,000  Level New York Center
05:38AM 39.9917 -74.8242 51° Northeast 531 611 33,000  Level New York Center
05:39AM 40.0689 -74.6361 62° Northeast 525 604 33,000  Level New York Center
05:40AM 40.1372 -74.4581 63° Northeast 532 612 33,000  Level New York Center
05:41AM 40.2053 -74.2822 63° Northeast 537 618 33,000 -540 Level New York Center
05:43AM 40.3594 -73.8725 64° Northeast 526 605 31,200 -1,380 Descending Boston Center
05:44AM 40.4197 -73.7103 64° Northeast 514 592 28,400 -2,100 Descending Boston Center
05:45AM 40.4672 -73.5583 68° East 507 583 27,000 -720 Descending Boston Center
05:46AM 40.5247 -73.4067 63° Northeast 475 547 27,000  Level Boston Center
05:47AM 40.5844 -73.2597 62° Northeast 457 526 27,000  Level Boston Center
05:48AM 40.6664 -73.1242 51° Northeast 457 526 27,000  Level Boston Center
05:49AM 40.7589 -72.9936 47° Northeast 469 540 27,000  Level Boston Center
05:50AM 40.8450 -72.8544 51° Northeast 480 552 27,000 -600 Level Boston Center
05:51AM 40.9308 -72.7203 50° Northeast 480 552 25,900 -2,100 Descending Boston Center
05:52AM 41.0144 -72.5858 50° Northeast 473 544 22,800 -3,360 Descending Boston Center
05:53AM 41.0769 -72.4897 49° Northeast 456 525 20,300 -3,120 Descending Boston Center
05:53AM 41.0917 -72.4622 55° Northeast 458 527 19,700 -2,820 Descending Boston Center
05:54AM 41.1583 -72.3547 51° Northeast 406 467 17,200 -3,060 Descending Boston Center
05:55AM 41.2289 -72.2414 50° Northeast 397 457 14,200 -2,520 Descending Boston Center
05:56AM 41.2975 -72.1361 49° Northeast 373 429 12,200 -1,500 Descending Boston Center
05:57AM 41.3597 -72.0308 52° Northeast 361 415 11,200 -1,080 Descending Boston Center
05:58AM 41.4197 -71.9308 51° Northeast 330 380 10,100 -960 Descending Boston Center
05:59AM 41.4736 -71.8444 50° Northeast 294 338 9,300 -900 Descending Boston Center
06:00AM 41.5231 -71.7664 50° Northeast 283 326 8,300 -1,080 Descending Boston Center
06:01AM 41.5747 -71.6769 52° Northeast 280 322 7,200 -1,200 Descending Boston Center
06:02AM 41.6367 -71.6069 40° Northeast 276 318 5,800 -1,080 Descending Boston Center
06:03AM 41.7008 -71.5614 28° Northeast 254 292 5,000 -420 Descending Boston Center
06:04AM 41.7589 -71.5133 32° Northeast 224 258 5,000 -420 Level Boston Center
06:05AM 41.7939 -71.4794 36° Northeast 151 174 4,200 -1,200 Descending Boston Center
06:06AM 41.7875 -71.4350 101° East 139 160 2,700 -1,620 Descending Boston Center
06:07AM 41.7661 -71.4019 131° Southeast 128 147 1,100 -1,200 Descending Boston Center
06:08AM 41.7372 -71.4164 200° South 108 124 300 -840 Descending Boston Center
06:10AM 41.7167 -71.4167 North  Level FlightAware Approximate